Time;durP1;ratioP1;P1;durP2;ratioP2;P2;SDS_P1;SDS_P2;PMS_P1;PMS_P2;Temp;Humidity;BMP_temperature;BMP_pressure;BME280_temperature;BME280_humidity;BME280_pressure;Samples;Min_cycle;Max_cycle;Signal;HPM_P1;HPM_P2
2022/01/27 00:05:01;;;;;;;27.67;12.00;;;3.00;99.90;;;;;;5042954;28;20332;-68
2022/01/27 00:07:27;;;;;;;29.90;13.10;;;3.00;99.90;;;;;;5041115;28;20184;-65
2022/01/27 00:12:34;;;;;;;35.93;13.40;;;2.90;99.90;;;;;;5040441;28;20177;-62
2022/01/27 00:15:11;;;;;;;26.63;12.63;;;2.90;99.90;;;;;;5044471;28;20193;-62
2022/01/27 00:17:45;;;;;;;31.10;12.97;;;2.90;99.90;;;;;;5046813;28;20173;-67
2022/01/27 00:20:12;;;;;;;27.10;11.70;;;2.90;99.90;;;;;;5041856;28;20183;-63
2022/01/27 00:22:39;;;;;;;25.57;10.60;;;2.90;99.90;;;;;;5039865;28;20173;-65
2022/01/27 00:25:06;;;;;;;24.67;11.80;;;3.10;99.90;;;;;;5041887;28;20240;-62
2022/01/27 00:27:32;;;;;;;26.07;13.50;;;3.00;99.90;;;;;;5038503;28;20682;-63
2022/01/27 00:30:03;;;;;;;28.13;11.67;;;3.00;99.90;;;;;;5043919;28;20184;-66
2022/01/27 00:32:29;;;;;;;26.73;11.50;;;2.90;99.90;;;;;;5045109;28;20271;-64
2022/01/27 00:34:54;;;;;;;22.87;10.20;;;2.90;99.90;;;;;;5074310;28;20310;-63
2022/01/27 00:37:20;;;;;;;27.57;11.93;;;2.90;99.90;;;;;;5043082;28;20297;-63
2022/01/27 00:39:45;;;;;;;26.30;11.37;;;2.90;99.90;;;;;;5042498;28;20180;-63
2022/01/27 00:42:11;;;;;;;27.83;12.00;;;2.90;99.90;;;;;;5042583;28;20211;-63
2022/01/27 00:44:37;;;;;;;28.87;11.70;;;2.90;99.90;;;;;;5039247;28;20261;-65
2022/01/27 00:47:02;;;;;;;37.20;12.80;;;2.90;99.90;;;;;;5041498;28;20677;-63
2022/01/27 00:49:28;;;;;;;31.53;12.93;;;2.90;99.90;;;;;;5040869;28;20305;-65
2022/01/27 00:51:54;;;;;;;28.73;13.20;;;2.90;99.90;;;;;;5038047;28;20182;-64
2022/01/27 00:54:24;;;;;;;29.77;11.60;;;2.90;99.90;;;;;;5045090;28;20184;-63
2022/01/27 01:02:00;;;;;;;29.47;12.23;;;2.90;99.90;;;;;;5039656;28;20688;-62
2022/01/27 01:04:31;;;;;;;34.27;12.83;;;2.90;99.90;;;;;;5043569;28;20240;-64
2022/01/27 01:06:57;;;;;;;31.80;12.93;;;2.90;99.90;;;;;;5038208;28;20185;-65
2022/01/27 01:14:52;;;;;;;31.10;12.70;;;3.00;99.90;;;;;;5040804;28;20221;-68
2022/01/27 01:20:17;;;;;;;32.00;12.83;;;2.90;99.90;;;;;;5043942;28;20230;-64
2022/01/27 01:31:09;;;;;;;30.83;12.87;;;3.00;99.90;;;;;;5049132;28;20230;-63
2022/01/27 01:33:37;;;;;;;29.67;11.87;;;3.10;99.90;;;;;;5040764;28;20577;-63
2022/01/27 01:36:13;;;;;;;25.40;11.40;;;3.00;99.90;;;;;;5047063;28;20208;-64
2022/01/27 01:38:39;;;;;;;32.87;12.30;;;3.00;99.90;;;;;;5048195;28;20183;-66
2022/01/27 01:41:05;;;;;;;33.80;12.37;;;3.10;99.90;;;;;;5051411;28;20243;-63
2022/01/27 01:43:31;;;;;;;26.77;11.67;;;3.00;99.90;;;;;;5051435;28;20260;-66
2022/01/27 01:45:57;;;;;;;26.83;10.93;;;3.00;99.90;;;;;;5051603;28;20219;-69
2022/01/27 01:48:23;;;;;;;21.50;9.90;;;3.00;99.90;;;;;;5052678;28;20185;-69
2022/01/27 01:50:49;;;;;;;28.60;11.40;;;3.00;99.90;;;;;;5047998;28;20192;-63
2022/01/27 01:53:16;;;;;;;24.93;10.97;;;3.10;99.90;;;;;;5036966;28;20189;-63
2022/01/27 01:55:41;;;;;;;21.87;10.70;;;3.00;99.90;;;;;;5039014;28;20262;-62
2022/01/27 01:58:07;;;;;;;27.67;11.00;;;3.00;99.90;;;;;;5046617;28;20184;-67
2022/01/27 02:00:33;;;;;;;26.73;11.80;;;3.00;99.90;;;;;;5045438;28;20279;-63
2022/01/27 02:02:58;;;;;;;29.53;11.97;;;3.30;99.90;;;;;;5036811;28;20192;-64
2022/01/27 02:05:29;;;;;;;25.57;11.00;;;3.00;99.90;;;;;;5039925;28;20549;-64
2022/01/27 02:19:27;;;;;;;24.90;10.07;;;3.00;99.90;;;;;;5040175;28;20269;-71
2022/01/27 02:22:01;;;;;;;24.57;9.70;;;3.10;99.90;;;;;;5054556;28;20248;-64
2022/01/27 02:24:30;;;;;;;23.53;10.17;;;3.00;99.90;;;;;;5056153;28;20189;-64
2022/01/27 02:26:57;;;;;;;25.80;10.50;;;3.00;99.90;;;;;;5054173;28;20250;-64
2022/01/27 02:29:24;;;;;;;26.00;10.47;;;3.00;99.90;;;;;;5040144;28;20207;-64
2022/01/27 02:31:51;;;;;;;25.77;10.57;;;3.00;99.90;;;;;;5037831;28;20182;-63
2022/01/27 02:34:17;;;;;;;25.97;11.30;;;3.10;99.90;;;;;;5039288;28;20189;-63
2022/01/27 02:36:43;;;;;;;21.23;9.83;;;3.00;99.90;;;;;;5030126;28;20302;-64
2022/01/27 02:39:10;;;;;;;25.53;10.40;;;3.00;99.90;;;;;;5034870;28;20574;-66
2022/01/27 02:41:50;;;;;;;21.40;8.77;;;3.10;99.90;;;;;;5035884;28;20176;-64
2022/01/27 02:44:57;;;;;;;22.40;9.50;;;3.10;99.90;;;;;;5037717;28;20177;-62
2022/01/27 02:47:25;;;;;;;21.80;9.90;;;3.00;99.90;;;;;;5041642;28;20265;-65
2022/01/27 02:49:50;;;;;;;25.07;11.33;;;3.00;99.90;;;;;;5036082;28;20590;-63
2022/01/27 02:52:17;;;;;;;23.87;9.77;;;3.10;99.90;;;;;;5037593;28;20266;-63
2022/01/27 02:54:42;;;;;;;26.57;11.03;;;3.10;99.90;;;;;;5037389;28;20196;-66
2022/01/27 02:57:08;;;;;;;21.07;8.83;;;3.10;99.90;;;;;;5037314;28;20200;-65
2022/01/27 02:59:34;;;;;;;22.87;9.10;;;3.10;99.90;;;;;;5035866;28;20735;-62
2022/01/27 03:02:00;;;;;;;24.50;10.57;;;3.10;99.90;;;;;;5034734;28;20223;-65
2022/01/27 03:04:26;;;;;;;22.03;9.80;;;3.00;99.90;;;;;;5039485;28;20302;-63
2022/01/27 03:06:53;;;;;;;27.47;11.53;;;3.00;99.90;;;;;;5040920;28;20185;-63
2022/01/27 03:09:19;;;;;;;21.00;9.80;;;2.90;99.90;;;;;;5043899;28;20181;-63
2022/01/27 03:11:51;;;;;;;23.13;10.60;;;3.00;99.90;;;;;;5037784;28;20245;-64
2022/01/27 03:14:20;;;;;;;22.17;8.30;;;3.00;99.90;;;;;;5042151;28;20475;-62
2022/01/27 03:16:46;;;;;;;22.47;9.50;;;3.10;99.90;;;;;;5041913;28;20613;-63
2022/01/27 03:19:12;;;;;;;20.00;9.97;;;3.00;99.90;;;;;;5040629;28;20188;-66
2022/01/27 03:21:39;;;;;;;21.43;9.03;;;3.10;99.90;;;;;;5049021;28;20685;-63
2022/01/27 03:24:05;;;;;;;19.50;7.43;;;3.10;99.90;;;;;;5042079;28;20285;-63
2022/01/27 03:26:31;;;;;;;16.97;8.53;;;3.10;99.90;;;;;;5047706;28;20273;-63
2022/01/27 03:28:57;;;;;;;20.17;8.83;;;3.10;99.90;;;;;;5042617;28;20189;-64
2022/01/27 03:31:23;;;;;;;21.30;8.67;;;3.10;99.90;;;;;;5042049;28;20255;-65
2022/01/27 03:33:49;;;;;;;25.93;9.83;;;3.30;99.90;;;;;;5039920;28;20268;-62
2022/01/27 03:36:15;;;;;;;18.17;8.13;;;3.20;99.90;;;;;;5039605;28;20229;-66
2022/01/27 03:38:41;;;;;;;19.80;8.47;;;3.10;99.90;;;;;;5040214;28;20276;-63
2022/01/27 03:41:08;;;;;;;21.90;9.47;;;3.10;99.90;;;;;;5041126;28;20235;-64
2022/01/27 03:43:36;;;;;;;22.73;8.93;;;3.20;99.90;;;;;;5040520;28;20185;-63
2022/01/27 03:46:02;;;;;;;23.43;9.93;;;3.00;99.90;;;;;;5043475;28;20649;-63
2022/01/27 03:48:29;;;;;;;24.63;10.13;;;3.10;99.90;;;;;;5041203;28;20187;-62
2022/01/27 03:50:54;;;;;;;19.70;9.67;;;3.10;99.90;;;;;;5041342;28;20185;-64
2022/01/27 03:53:20;;;;;;;20.73;11.23;;;3.10;99.90;;;;;;5042171;28;20724;-63
2022/01/27 03:55:46;;;;;;;22.40;10.53;;;3.20;99.90;;;;;;5040682;28;20525;-63
2022/01/27 03:58:11;;;;;;;23.67;10.77;;;3.20;99.90;;;;;;5039218;28;20247;-69
2022/01/27 04:00:37;;;;;;;22.87;9.70;;;3.20;99.90;;;;;;5039804;28;20258;-63
2022/01/27 04:03:10;;;;;;;21.60;11.03;;;3.10;99.90;;;;;;5037845;28;20193;-63
2022/01/27 04:05:41;;;;;;;21.57;8.90;;;3.10;99.90;;;;;;5043650;28;20204;-64
2022/01/27 04:08:09;;;;;;;26.97;10.70;;;3.20;99.90;;;;;;5041955;28;20232;-65
2022/01/27 04:10:36;;;;;;;21.53;9.97;;;3.20;99.90;;;;;;5038887;28;20228;-63
2022/01/27 04:13:02;;;;;;;23.03;10.17;;;3.10;99.90;;;;;;5040386;28;20185;-64
2022/01/27 04:15:28;;;;;;;23.70;10.23;;;3.20;99.90;;;;;;5041321;28;20293;-65
2022/01/27 04:17:54;;;;;;;27.00;10.77;;;3.20;99.90;;;;;;5040522;28;20236;-63
2022/01/27 04:20:19;;;;;;;21.57;7.97;;;3.10;99.90;;;;;;5040215;28;20195;-63
2022/01/27 04:22:45;;;;;;;25.80;9.80;;;3.10;99.90;;;;;;5039446;28;20209;-62
2022/01/27 04:25:12;;;;;;;17.57;8.67;;;3.10;99.90;;;;;;5039707;28;20215;-63
2022/01/27 04:27:41;;;;;;;20.67;8.80;;;3.10;99.90;;;;;;5039612;28;20185;-64
2022/01/27 04:30:14;;;;;;;21.57;9.63;;;3.20;99.90;;;;;;5039857;28;20177;-64
2022/01/27 04:32:45;;;;;;;20.47;9.97;;;3.10;99.90;;;;;;5034788;28;20497;-63
2022/01/27 04:35:15;;;;;;;27.17;9.37;;;3.10;99.90;;;;;;5041139;28;20200;-64
2022/01/27 04:37:52;;;;;;;20.80;8.97;;;3.10;99.90;;;;;;5038171;28;20237;-62
2022/01/27 04:40:24;;;;;;;20.33;8.93;;;3.20;99.90;;;;;;5038861;28;20173;-63
2022/01/27 04:42:59;;;;;;;22.27;10.30;;;3.20;99.90;;;;;;5040740;28;20168;-63
2022/01/27 04:45:30;;;;;;;20.83;9.70;;;3.20;99.90;;;;;;5038001;28;20211;-64
2022/01/27 04:48:06;;;;;;;22.87;10.10;;;3.20;99.90;;;;;;5041832;28;20834;-62
2022/01/27 04:50:31;;;;;;;25.00;10.17;;;3.20;99.90;;;;;;5043553;28;20173;-64
2022/01/27 04:52:59;;;;;;;27.00;10.87;;;3.20;99.90;;;;;;5047032;28;20226;-65
2022/01/27 04:55:25;;;;;;;23.73;10.33;;;3.20;99.90;;;;;;5038043;28;20180;-63
2022/01/27 04:58:06;;;;;;;27.40;11.43;;;3.30;99.90;;;;;;5039088;28;20324;-70
2022/01/27 05:00:32;;;;;;;22.87;10.43;;;3.20;99.90;;;;;;5037562;28;20231;-62
2022/01/27 05:03:00;;;;;;;22.97;8.03;;;3.20;99.90;;;;;;5037077;28;20204;-63
2022/01/27 05:05:25;;;;;;;27.40;10.33;;;3.30;99.90;;;;;;5037858;28;20561;-64
2022/01/27 05:07:58;;;;;;;22.37;10.07;;;3.30;99.90;;;;;;5041106;28;20198;-64
2022/01/27 05:10:28;;;;;;;24.57;10.30;;;3.30;99.90;;;;;;5036181;28;20203;-64
2022/01/27 05:13:01;;;;;;;24.50;10.03;;;3.20;99.90;;;;;;5035552;28;20188;-64
2022/01/27 05:15:27;;;;;;;17.33;9.40;;;3.30;99.90;;;;;;5038901;28;20579;-64
2022/01/27 05:17:52;;;;;;;20.43;9.93;;;3.40;99.90;;;;;;5038948;28;20261;-64
2022/01/27 05:20:18;;;;;;;18.70;9.80;;;3.30;99.90;;;;;;5040060;28;20249;-63
2022/01/27 05:22:44;;;;;;;20.53;9.33;;;3.30;99.90;;;;;;5042100;28;20226;-62
2022/01/27 05:25:09;;;;;;;22.77;8.83;;;3.30;99.90;;;;;;5039004;28;20710;-63
2022/01/27 05:27:35;;;;;;;19.20;8.03;;;3.30;99.90;;;;;;5038975;28;20637;-62
2022/01/27 05:30:01;;;;;;;14.20;5.83;;;3.40;99.90;;;;;;5037000;28;20179;-62
2022/01/27 05:32:27;;;;;;;15.77;7.73;;;3.30;99.90;;;;;;5038281;28;20197;-64
2022/01/27 05:34:52;;;;;;;17.70;8.60;;;3.20;99.90;;;;;;5041367;28;20198;-66
2022/01/27 05:37:18;;;;;;;18.50;9.13;;;3.30;99.90;;;;;;5035481;28;21156;-63
2022/01/27 05:39:43;;;;;;;19.20;8.93;;;3.40;99.90;;;;;;5039147;28;20256;-63
2022/01/27 05:42:09;;;;;;;17.63;9.03;;;3.30;99.90;;;;;;5035804;28;20181;-63
2022/01/27 05:44:35;;;;;;;17.93;8.53;;;3.40;99.90;;;;;;5039127;28;20553;-62
2022/01/27 05:47:01;;;;;;;16.07;7.17;;;3.50;99.90;;;;;;5039121;28;20176;-62
2022/01/27 05:49:26;;;;;;;19.07;9.17;;;3.50;99.90;;;;;;5036597;28;20302;-62
2022/01/27 05:51:52;;;;;;;16.53;8.60;;;3.50;99.90;;;;;;5046910;28;20169;-62
2022/01/27 05:54:18;;;;;;;19.03;8.53;;;3.30;99.90;;;;;;5047782;28;20197;-63
2022/01/27 05:56:43;;;;;;;15.83;7.70;;;3.50;99.90;;;;;;5048200;28;20182;-63
2022/01/27 05:59:09;;;;;;;13.33;6.77;;;3.40;99.90;;;;;;5038379;28;20644;-64
2022/01/27 06:01:34;;;;;;;18.90;8.20;;;3.40;99.90;;;;;;5035989;28;20188;-62
2022/01/27 06:04:00;;;;;;;16.03;8.17;;;3.50;99.90;;;;;;5035940;28;20630;-63
2022/01/27 06:06:25;;;;;;;17.47;7.47;;;3.40;99.90;;;;;;5037719;28;20219;-62
2022/01/27 06:08:51;;;;;;;9.30;5.40;;;3.50;99.90;;;;;;5036370;28;20180;-64
2022/01/27 06:11:16;;;;;;;13.53;7.47;;;3.40;99.90;;;;;;5035815;28;20200;-68
2022/01/27 06:13:43;;;;;;;12.60;7.27;;;3.40;99.90;;;;;;5038789;28;20223;-64
2022/01/27 06:16:10;;;;;;;14.67;8.40;;;3.40;99.90;;;;;;5034850;28;20184;-63
2022/01/27 06:18:37;;;;;;;11.47;6.47;;;3.40;99.90;;;;;;5040777;28;20639;-68
2022/01/27 06:21:05;;;;;;;12.43;6.77;;;3.40;99.90;;;;;;5029121;28;20195;-62
2022/01/27 06:23:31;;;;;;;13.93;7.30;;;3.40;99.90;;;;;;5033818;28;20176;-63
2022/01/27 06:25:58;;;;;;;12.90;7.50;;;3.40;99.90;;;;;;5036124;28;20295;-66
2022/01/27 06:28:24;;;;;;;13.20;7.10;;;3.40;99.90;;;;;;5035313;28;20635;-64
2022/01/27 06:30:49;;;;;;;14.50;7.83;;;3.50;99.90;;;;;;5035377;28;20264;-63
2022/01/27 06:33:15;;;;;;;15.03;7.60;;;3.40;99.90;;;;;;5033747;28;20212;-63
2022/01/27 06:35:41;;;;;;;14.40;8.17;;;3.40;99.90;;;;;;5034799;28;20268;-63
2022/01/27 06:38:07;;;;;;;12.83;7.87;;;3.30;99.90;;;;;;5037913;28;20228;-64
2022/01/27 06:40:33;;;;;;;14.60;8.17;;;3.30;99.90;;;;;;5043429;28;20224;-63
2022/01/27 06:42:59;;;;;;;12.30;7.77;;;3.40;99.90;;;;;;5034806;28;20691;-63
2022/01/27 06:45:25;;;;;;;16.60;8.13;;;3.40;99.90;;;;;;5041819;28;20223;-63
2022/01/27 06:47:50;;;;;;;14.30;8.73;;;3.30;99.90;;;;;;5033050;28;20283;-62
2022/01/27 06:50:16;;;;;;;14.53;7.93;;;3.30;99.90;;;;;;5042096;28;20272;-66
2022/01/27 06:52:42;;;;;;;14.10;7.80;;;3.30;99.90;;;;;;5040427;28;20188;-64
2022/01/27 06:55:12;;;;;;;12.43;6.93;;;3.30;99.90;;;;;;5036601;28;20669;-68
2022/01/27 06:57:38;;;;;;;16.80;7.93;;;3.30;99.90;;;;;;5034936;28;20178;-67
2022/01/27 07:00:06;;;;;;;17.50;8.13;;;3.30;99.90;;;;;;5040660;28;20211;-65
2022/01/27 07:02:31;;;;;;;12.97;8.00;;;3.30;99.90;;;;;;5039895;28;20576;-64
2022/01/27 07:04:57;;;;;;;16.13;7.33;;;3.40;99.90;;;;;;5042485;28;20316;-66
2022/01/27 07:07:23;;;;;;;15.20;7.90;;;3.40;99.90;;;;;;5044039;28;20192;-64
2022/01/27 07:09:48;;;;;;;13.90;6.53;;;3.30;99.90;;;;;;5039638;28;20256;-64
2022/01/27 07:12:14;;;;;;;20.87;8.17;;;3.40;99.90;;;;;;5037857;28;20537;-63
2022/01/27 07:14:40;;;;;;;18.93;9.37;;;3.50;99.90;;;;;;5041452;28;20189;-64
2022/01/27 07:17:05;;;;;;;15.43;8.17;;;3.40;99.90;;;;;;5042785;28;20185;-63
2022/01/27 07:19:31;;;;;;;17.70;8.87;;;3.40;99.90;;;;;;5042601;28;20185;-62
2022/01/27 07:21:57;;;;;;;16.00;8.80;;;3.40;99.90;;;;;;5039334;28;20237;-64
2022/01/27 07:24:22;;;;;;;15.40;8.27;;;3.50;99.90;;;;;;5042488;28;20264;-64
2022/01/27 07:26:48;;;;;;;14.47;8.30;;;3.50;99.90;;;;;;5043448;28;20199;-63
2022/01/27 07:29:13;;;;;;;12.97;7.47;;;3.50;99.90;;;;;;5049191;28;20181;-65
2022/01/27 07:31:39;;;;;;;11.63;7.70;;;3.40;99.90;;;;;;5038972;28;20677;-63
2022/01/27 07:34:05;;;;;;;15.03;8.03;;;3.40;99.90;;;;;;5042837;28;20248;-62
2022/01/27 07:36:31;;;;;;;13.13;7.57;;;3.40;99.90;;;;;;5041142;28;20256;-64
2022/01/27 07:38:58;;;;;;;14.77;8.23;;;3.30;99.90;;;;;;5039731;28;20845;-64
2022/01/27 07:41:24;;;;;;;16.57;7.20;;;3.40;99.90;;;;;;5039824;28;20203;-63
2022/01/27 07:43:49;;;;;;;14.57;8.10;;;3.40;99.90;;;;;;5046359;28;20579;-63
2022/01/27 07:46:15;;;;;;;11.17;6.50;;;3.50;99.90;;;;;;5036705;28;20565;-64
2022/01/27 07:48:41;;;;;;;18.23;7.60;;;3.50;99.90;;;;;;5038981;28;20537;-67
2022/01/27 07:51:08;;;;;;;14.63;7.93;;;4.20;99.90;;;;;;5039289;28;20183;-68
2022/01/27 07:53:35;;;;;;;15.20;7.40;;;4.70;99.90;;;;;;5041899;28;20507;-63
2022/01/27 07:56:04;;;;;;;12.43;7.13;;;4.10;99.90;;;;;;5036470;28;20192;-68
2022/01/27 07:58:31;;;;;;;12.83;7.33;;;3.70;99.90;;;;;;5041977;28;20169;-63
2022/01/27 08:00:58;;;;;;;10.87;7.43;;;3.60;99.90;;;;;;5034843;28;20232;-68
2022/01/27 08:03:24;;;;;;;15.13;7.77;;;3.40;99.90;;;;;;5035815;28;20180;-64
2022/01/27 08:05:51;;;;;;;9.97;5.40;;;3.30;99.90;;;;;;5038128;28;20327;-63
2022/01/27 08:08:17;;;;;;;13.97;7.77;;;3.40;99.90;;;;;;5038200;28;20656;-64
2022/01/27 08:10:44;;;;;;;14.27;7.60;;;3.40;99.90;;;;;;5041209;28;20193;-64
2022/01/27 08:13:11;;;;;;;12.93;7.30;;;3.40;99.90;;;;;;5035092;28;20263;-64
2022/01/27 08:15:36;;;;;;;8.67;5.03;;;3.50;99.90;;;;;;5040581;28;20180;-64
2022/01/27 08:18:03;;;;;;;13.33;7.93;;;3.50;99.90;;;;;;5039081;28;20213;-63
2022/01/27 08:20:28;;;;;;;13.43;7.53;;;3.60;99.90;;;;;;5037494;28;20192;-65
2022/01/27 08:22:55;;;;;;;16.20;7.43;;;3.60;99.90;;;;;;5036915;28;20524;-63
2022/01/27 08:25:22;;;;;;;12.10;6.57;;;3.60;99.90;;;;;;5037233;28;20216;-65
2022/01/27 08:27:51;;;;;;;14.50;7.50;;;3.70;99.90;;;;;;5033154;28;20185;-63
2022/01/27 08:30:19;;;;;;;11.53;7.97;;;3.60;99.90;;;;;;5039857;28;20658;-63
2022/01/27 08:33:04;;;;;;;13.93;7.60;;;3.60;99.90;;;;;;5035225;28;20188;-64
2022/01/27 08:35:30;;;;;;;13.63;7.97;;;3.70;99.90;;;;;;5037762;28;20195;-64
2022/01/27 08:37:56;;;;;;;12.53;7.63;;;3.70;99.90;;;;;;5040348;28;20254;-63
2022/01/27 08:40:22;;;;;;;16.97;8.80;;;3.80;99.90;;;;;;5036820;28;20192;-64
2022/01/27 08:42:48;;;;;;;14.33;8.17;;;3.90;99.90;;;;;;5035675;28;20278;-64
2022/01/27 08:45:16;;;;;;;13.67;7.07;;;3.80;99.90;;;;;;5039362;28;20243;-63
2022/01/27 08:47:44;;;;;;;15.27;8.20;;;3.80;99.90;;;;;;5039119;28;20187;-66
2022/01/27 08:50:12;;;;;;;12.47;7.00;;;3.80;99.90;;;;;;5039286;28;20227;-67
2022/01/27 08:52:39;;;;;;;16.07;8.07;;;3.80;99.90;;;;;;5039996;28;20197;-63
2022/01/27 08:55:06;;;;;;;12.93;8.13;;;3.80;99.90;;;;;;5042210;28;20179;-62
2022/01/27 08:57:32;;;;;;;11.83;5.73;;;3.70;99.90;;;;;;5032426;28;20266;-62
2022/01/27 08:59:58;;;;;;;14.10;8.20;;;3.70;99.90;;;;;;5033251;28;20594;-66
2022/01/27 09:02:24;;;;;;;12.17;7.20;;;3.70;99.90;;;;;;5038895;28;20200;-64
2022/01/27 09:04:50;;;;;;;15.27;7.57;;;3.60;99.90;;;;;;5041579;28;20258;-63
2022/01/27 09:07:16;;;;;;;15.30;7.47;;;3.60;99.90;;;;;;5040129;28;20185;-63
2022/01/27 09:09:45;;;;;;;12.40;7.33;;;3.60;99.90;;;;;;5046482;28;20241;-64
2022/01/27 09:12:12;;;;;;;13.23;6.63;;;3.50;99.90;;;;;;5050170;28;20243;-65
2022/01/27 09:14:41;;;;;;;15.87;7.97;;;3.60;99.90;;;;;;5056229;28;20238;-66
2022/01/27 09:17:07;;;;;;;30.50;12.10;;;3.60;99.90;;;;;;5050537;28;20192;-65
2022/01/27 09:19:37;;;;;;;14.60;8.50;;;3.70;99.90;;;;;;5055400;28;20242;-66
2022/01/27 09:22:09;;;;;;;16.80;8.67;;;3.80;99.90;;;;;;5053681;28;20172;-64
2022/01/27 09:24:48;;;;;;;16.40;8.77;;;4.00;99.90;;;;;;5048722;28;20607;-63
2022/01/27 09:27:13;;;;;;;7.97;5.37;;;3.90;99.90;;;;;;5042780;28;20259;-67
2022/01/27 09:29:39;;;;;;;11.73;6.60;;;4.00;99.90;;;;;;5036856;28;20275;-64
2022/01/27 09:32:05;;;;;;;13.80;7.00;;;4.00;99.90;;;;;;5036965;28;20510;-62
2022/01/27 09:34:31;;;;;;;11.83;6.57;;;4.00;99.90;;;;;;5039385;28;20284;-63
2022/01/27 09:37:02;;;;;;;14.07;7.90;;;4.00;99.90;;;;;;5037317;28;20669;-64
2022/01/27 09:39:28;;;;;;;13.47;7.87;;;4.20;99.90;;;;;;5040996;28;20196;-65
2022/01/27 09:41:55;;;;;;;11.23;6.13;;;4.30;99.90;;;;;;5035593;28;20193;-64
2022/01/27 09:44:27;;;;;;;17.07;8.17;;;4.50;99.90;;;;;;5037018;28;20212;-71
2022/01/27 09:46:56;;;;;;;14.37;7.70;;;4.20;99.90;;;;;;5035652;28;20530;-65
2022/01/27 09:49:31;;;;;;;14.40;8.00;;;4.10;99.90;;;;;;5030721;28;20227;-67
2022/01/27 09:51:56;;;;;;;13.90;8.33;;;4.10;99.90;;;;;;5036747;28;20702;-63
2022/01/27 09:54:22;;;;;;;13.40;7.67;;;4.20;99.90;;;;;;5038881;28;20193;-66
2022/01/27 09:56:48;;;;;;;13.03;7.87;;;4.30;99.90;;;;;;5035147;28;20288;-64
2022/01/27 09:59:13;;;;;;;15.53;8.53;;;4.30;99.90;;;;;;5035842;28;20181;-67
2022/01/27 10:02:07;;;;;;;13.57;7.77;;;4.20;99.90;;;;;;5029074;28;20263;-63
2022/01/27 10:04:47;;;;;;;11.23;6.77;;;4.20;99.90;;;;;;5035522;28;20324;-63
2022/01/27 10:07:15;;;;;;;17.33;7.10;;;4.20;99.90;;;;;;5040902;28;20181;-69
2022/01/27 10:10:00;;;;;;;8.97;4.97;;;4.20;99.90;;;;;;5048572;28;20805;-65
2022/01/27 10:12:28;;;;;;;15.40;8.73;;;4.20;99.90;;;;;;5035531;28;20200;-65
2022/01/27 10:15:02;;;;;;;13.37;8.07;;;4.10;99.90;;;;;;5040527;28;20176;-64
2022/01/27 10:17:29;;;;;;;15.70;9.13;;;4.20;99.90;;;;;;5034261;28;20277;-64
2022/01/27 10:19:57;;;;;;;15.53;8.43;;;4.30;99.90;;;;;;5037418;28;20238;-63
2022/01/27 10:22:23;;;;;;;13.70;7.97;;;4.20;99.90;;;;;;5035601;28;20171;-67
2022/01/27 10:25:00;;;;;;;16.10;9.00;;;4.20;99.90;;;;;;5035762;28;20232;-64
2022/01/27 10:27:45;;;;;;;12.23;6.57;;;4.10;99.90;;;;;;5036199;28;20354;-67
2022/01/27 10:32:59;;;;;;;12.83;8.40;;;4.50;99.90;;;;;;5032491;28;20508;-62
2022/01/27 10:35:27;;;;;;;12.90;6.43;;;4.50;99.90;;;;;;5036447;28;20211;-62
2022/01/27 10:38:06;;;;;;;15.50;7.53;;;4.50;99.90;;;;;;5035239;28;20412;-65
2022/01/27 10:40:37;;;;;;;14.77;7.60;;;4.40;99.90;;;;;;5039425;28;20236;-63
2022/01/27 10:43:05;;;;;;;13.70;7.80;;;4.30;99.90;;;;;;5032580;28;20319;-63
2022/01/27 10:45:31;;;;;;;16.03;8.37;;;4.30;99.90;;;;;;5037191;28;20263;-64
2022/01/27 10:48:23;;;;;;;16.57;7.87;;;4.30;99.90;;;;;;5058953;28;20202;-67
2022/01/27 10:50:59;;;;;;;16.67;8.60;;;4.40;99.90;;;;;;5041095;28;20181;-64
2022/01/27 10:53:51;;;;;;;17.87;8.37;;;4.30;99.90;;;;;;5035474;28;20178;-65
2022/01/27 10:56:31;;;;;;;17.57;8.53;;;4.30;99.90;;;;;;5033790;28;20191;-64
2022/01/27 10:58:58;;;;;;;19.07;9.87;;;4.30;99.90;;;;;;5035934;28;20709;-64
2022/01/27 11:01:27;;;;;;;16.63;8.60;;;4.40;99.90;;;;;;5036146;28;20570;-66
2022/01/27 11:03:55;;;;;;;25.87;11.33;;;4.40;99.90;;;;;;5032519;28;20240;-65
2022/01/27 11:06:24;;;;;;;16.47;9.23;;;4.40;99.90;;;;;;5040372;28;20533;-64
2022/01/27 11:08:54;;;;;;;14.70;7.97;;;4.40;99.90;;;;;;5044145;28;20284;-64
2022/01/27 11:11:24;;;;;;;19.17;9.93;;;4.40;99.90;;;;;;5039843;28;20209;-62
2022/01/27 11:13:51;;;;;;;11.67;6.20;;;4.50;99.90;;;;;;5036756;28;20210;-64
2022/01/27 11:16:21;;;;;;;12.60;6.43;;;4.50;99.90;;;;;;5036923;28;20197;-64
2022/01/27 11:18:47;;;;;;;10.17;6.33;;;4.50;99.90;;;;;;5038585;28;20688;-63
2022/01/27 11:21:28;;;;;;;12.43;7.23;;;4.50;99.90;;;;;;5037647;28;20199;-66
2022/01/27 11:24:04;;;;;;;10.40;6.17;;;4.50;99.90;;;;;;5037347;28;20177;-64
2022/01/27 11:26:32;;;;;;;11.37;6.37;;;4.50;99.90;;;;;;5040328;28;20761;-62
2022/01/27 11:28:58;;;;;;;13.07;5.77;;;4.70;99.90;;;;;;5041148;28;20191;-65
2022/01/27 11:32:01;;;;;;;13.73;6.20;;;4.60;99.90;;;;;;5055477;28;20249;-63
2022/01/27 11:35:14;;;;;;;13.40;6.73;;;4.60;99.90;;;;;;5035246;28;20188;-65
2022/01/27 11:37:40;;;;;;;15.30;8.60;;;4.60;99.90;;;;;;5023313;28;20594;-63
2022/01/27 11:40:08;;;;;;;14.50;8.40;;;4.70;99.90;;;;;;5040328;28;20206;-63
2022/01/27 11:42:39;;;;;;;17.60;9.07;;;4.70;99.90;;;;;;5039679;28;20189;-63
2022/01/27 11:45:23;;;;;;;14.37;7.97;;;4.50;99.90;;;;;;5039819;28;20545;-64
2022/01/27 11:48:17;;;;;;;13.80;8.10;;;4.60;99.90;;;;;;5038890;28;20215;-63
2022/01/27 11:51:12;;;;;;;17.43;8.67;;;4.60;99.90;;;;;;5039957;28;20273;-66
2022/01/27 11:53:49;;;;;;;14.43;7.63;;;4.60;99.90;;;;;;5035857;28;20249;-64
2022/01/27 11:56:16;;;;;;;20.00;8.17;;;4.50;99.90;;;;;;5027443;28;20192;-66
2022/01/27 11:58:49;;;;;;;19.10;8.80;;;4.50;99.90;;;;;;5036870;28;20261;-62
2022/01/27 12:01:17;;;;;;;17.73;7.03;;;4.50;99.90;;;;;;5032316;28;20217;-67
2022/01/27 12:04:07;;;;;;;15.23;8.47;;;4.50;99.90;;;;;;5040470;28;20181;-64
2022/01/27 12:06:48;;;;;;;18.57;9.97;;;4.60;99.90;;;;;;5037095;28;20694;-66
2022/01/27 12:09:22;;;;;;;16.23;6.83;;;4.60;99.90;;;;;;5038876;28;20219;-62
2022/01/27 12:11:59;;;;;;;14.60;7.83;;;4.70;99.90;;;;;;5037735;28;20204;-63
2022/01/27 12:14:35;;;;;;;17.60;8.17;;;4.60;99.90;;;;;;5038131;28;20173;-66
2022/01/27 12:17:07;;;;;;;14.87;8.17;;;4.70;99.90;;;;;;5044989;28;20177;-64
2022/01/27 12:19:47;;;;;;;14.57;8.67;;;4.60;99.90;;;;;;5044548;28;20271;-63
2022/01/27 12:22:15;;;;;;;14.60;8.20;;;4.60;99.90;;;;;;5042332;28;20181;-65
2022/01/27 12:24:54;;;;;;;15.87;8.43;;;4.60;99.90;;;;;;5039953;28;20191;-63
2022/01/27 12:27:21;;;;;;;9.40;5.70;;;4.60;99.90;;;;;;5037544;28;20196;-64
2022/01/27 12:29:49;;;;;;;12.73;7.23;;;4.60;99.90;;;;;;5036009;28;20223;-63
2022/01/27 12:32:20;;;;;;;13.20;7.67;;;4.50;99.90;;;;;;5039023;28;20185;-63
2022/01/27 12:34:51;;;;;;;16.63;8.63;;;4.60;99.90;;;;;;5038491;28;20215;-63
2022/01/27 12:37:20;;;;;;;15.47;8.13;;;4.50;99.90;;;;;;5037129;28;20308;-63
2022/01/27 12:39:54;;;;;;;23.10;8.53;;;4.60;99.90;;;;;;5039639;28;20175;-64
2022/01/27 12:42:23;;;;;;;16.40;8.50;;;4.50;99.90;;;;;;5045216;28;20198;-63
2022/01/27 12:45:04;;;;;;;15.00;7.40;;;4.50;99.90;;;;;;5037328;28;20185;-63
2022/01/27 12:47:30;;;;;;;13.67;7.37;;;4.60;99.90;;;;;;5035599;28;20190;-62
2022/01/27 12:50:08;;;;;;;12.07;7.00;;;4.50;99.90;;;;;;5038404;28;20196;-62
2022/01/27 12:52:41;;;;;;;14.43;6.97;;;4.60;99.90;;;;;;5041858;28;20645;-63
2022/01/27 12:55:12;;;;;;;13.47;7.00;;;4.50;99.90;;;;;;5037493;28;20215;-69
2022/01/27 12:57:40;;;;;;;19.97;8.23;;;4.50;99.90;;;;;;5034738;28;20686;-64
2022/01/27 13:00:08;;;;;;;15.97;8.17;;;4.60;99.90;;;;;;5036437;28;20197;-69
2022/01/27 13:02:34;;;;;;;16.33;7.53;;;4.50;99.90;;;;;;5036712;28;20187;-66
2022/01/27 13:05:01;;;;;;;16.87;7.03;;;4.70;99.90;;;;;;5046844;28;20265;-73
2022/01/27 13:07:28;;;;;;;13.93;7.60;;;4.60;99.90;;;;;;5051452;28;20193;-69
2022/01/27 13:10:09;;;;;;;10.83;5.83;;;4.60;99.90;;;;;;5050583;28;20185;-69
2022/01/27 13:12:50;;;;;;;8.57;4.80;;;4.60;99.90;;;;;;5044315;28;20185;-64
2022/01/27 13:15:21;;;;;;;12.93;7.27;;;4.60;99.90;;;;;;5033330;28;20190;-67
2022/01/27 13:20:23;;;;;;;14.07;7.60;;;4.60;99.90;;;;;;5030841;28;20187;-64
2022/01/27 13:22:57;;;;;;;15.77;8.73;;;4.60;99.90;;;;;;5035804;28;20178;-63
2022/01/27 13:25:24;;;;;;;13.20;7.20;;;4.60;99.90;;;;;;5041833;28;20224;-63
2022/01/27 13:28:25;;;;;;;11.20;6.13;;;4.60;99.90;;;;;;5038303;28;20190;-66
2022/01/27 13:30:55;;;;;;;12.17;7.00;;;4.70;99.90;;;;;;5012278;28;20517;-62
2022/01/27 13:33:23;;;;;;;13.77;6.17;;;4.80;99.90;;;;;;5042506;28;20806;-61
2022/01/27 13:35:50;;;;;;;11.70;5.73;;;4.80;99.90;;;;;;5040290;28;20189;-64
2022/01/27 13:43:41;;;;;;;11.27;6.20;;;4.70;99.90;;;;;;5028697;28;20267;-63
2022/01/27 13:46:08;;;;;;;11.97;6.97;;;4.70;99.90;;;;;;5030756;28;20217;-64